Time;durP1;ratioP1;P1;durP2;ratioP2;P2;SDS_P1;SDS_P2;PMS_P1;PMS_P2;Temp;Humidity;BMP_temperature;BMP_pressure;BME280_temperature;BME280_humidity;BME280_pressure;Samples;Min_cycle;Max_cycle;Signal;HPM_P1;HPM_P2
2022/05/12 00:00:04;;;;;;;5.85;3.64;;;;;;;;;;370037;145;857731;-59
2022/05/12 00:01:06;;;;;;;7.11;3.60;;;;;;;;;;371505;144;867161;-59
2022/05/12 00:02:08;;;;;;;8.79;3.06;;;;;;;;;;371508;144;866044;-59
2022/05/12 00:03:09;;;;;;;7.68;2.99;;;;;;;;;;371545;145;858225;-59
2022/05/12 00:04:11;;;;;;;6.25;3.09;;;;;;;;;;369479;143;857152;-59
2022/05/12 00:05:13;;;;;;;6.65;2.79;;;;;;;;;;365931;145;857570;-60
2022/05/12 00:06:15;;;;;;;5.39;3.19;;;;;;;;;;364905;145;866615;-60
2022/05/12 00:07:17;;;;;;;6.94;3.43;;;;;;;;;;364932;145;864954;-60
2022/05/12 00:08:18;;;;;;;10.12;3.35;;;;;;;;;;364927;145;858898;-59
2022/05/12 00:09:20;;;;;;;6.06;3.40;;;;;;;;;;364983;145;857475;-60
2022/05/12 00:10:23;;;;;;;6.83;3.17;;;;;;;;;;365047;145;857280;-59
2022/05/12 00:11:25;;;;;;;11.25;3.23;;;;;;;;;;368094;146;857585;-59
2022/05/12 00:12:27;;;;;;;5.58;3.09;;;;;;;;;;365602;145;857754;-59
2022/05/12 00:13:28;;;;;;;5.84;3.08;;;;;;;;;;364836;147;857688;-59
2022/05/12 00:14:30;;;;;;;7.14;3.06;;;;;;;;;;365007;145;857122;-60
2022/05/12 00:15:31;;;;;;;7.59;3.32;;;;;;;;;;363934;147;857345;-59
2022/05/12 00:16:33;;;;;;;8.51;3.19;;;;;;;;;;363525;145;857276;-61
2022/05/12 00:17:35;;;;;;;11.83;3.39;;;;;;;;;;363315;148;857354;-61
2022/05/12 00:18:36;;;;;;;6.48;2.94;;;;;;;;;;363530;145;857367;-60
2022/05/12 00:19:37;;;;;;;6.84;3.41;;;;;;;;;;363472;145;857271;-59
2022/05/12 00:20:39;;;;;;;8.91;2.89;;;;;;;;;;368563;145;857290;-59
2022/05/12 00:21:41;;;;;;;7.13;3.51;;;;;;;;;;363453;148;865456;-59
2022/05/12 00:22:43;;;;;;;9.98;3.21;;;;;;;;;;366079;145;857134;-59
2022/05/12 00:23:56;;;;;;;11.66;3.01;;;;;;;;;;370375;145;857135;-59
2022/05/12 00:24:48;;;;;;;7.72;3.57;;;;;;;;;;368973;145;865032;-57
2022/05/12 00:25:50;;;;;;;8.69;3.09;;;;;;;;;;369242;145;860072;-60
2022/05/12 00:26:51;;;;;;;5.19;2.71;;;;;;;;;;367285;145;857101;-60
2022/05/12 00:27:53;;;;;;;7.31;3.59;;;;;;;;;;363427;148;864644;-60
2022/05/12 00:28:58;;;;;;;11.68;3.84;;;;;;;;;;363528;145;857221;-59
2022/05/12 00:30:00;;;;;;;6.86;3.82;;;;;;;;;;363268;148;859442;-59
2022/05/12 00:31:01;;;;;;;6.86;3.66;;;;;;;;;;363579;145;857233;-61
2022/05/12 00:32:03;;;;;;;6.82;3.67;;;;;;;;;;363473;148;859519;-59
2022/05/12 00:33:05;;;;;;;8.81;3.78;;;;;;;;;;363611;145;857916;-59
2022/05/12 00:34:07;;;;;;;6.63;2.96;;;;;;;;;;363397;147;864814;-60
2022/05/12 00:35:08;;;;;;;5.71;3.33;;;;;;;;;;363349;145;866584;-59
2022/05/12 00:36:11;;;;;;;6.91;3.14;;;;;;;;;;363156;148;866513;-59
2022/05/12 00:37:12;;;;;;;7.46;3.41;;;;;;;;;;363797;145;860122;-59
2022/05/12 00:38:13;;;;;;;8.56;3.14;;;;;;;;;;365705;146;858509;-58
2022/05/12 00:39:15;;;;;;;7.58;3.61;;;;;;;;;;364007;145;858643;-58
2022/05/12 00:40:17;;;;;;;8.57;3.23;;;;;;;;;;365784;147;858982;-59
2022/05/12 00:41:19;;;;;;;5.73;3.27;;;;;;;;;;369509;145;860168;-60
2022/05/12 00:42:21;;;;;;;8.50;3.31;;;;;;;;;;370085;145;858064;-60
2022/05/12 00:43:36;;;;;;;8.94;3.37;;;;;;;;;;370179;145;859116;-61
2022/05/12 00:44:38;;;;;;;7.41;2.93;;;;;;;;;;364840;145;858156;-59
2022/05/12 00:45:40;;;;;;;7.13;3.52;;;;;;;;;;363391;148;857770;-60
2022/05/12 00:46:42;;;;;;;9.25;2.99;;;;;;;;;;363423;145;858098;-59
2022/05/12 00:47:43;;;;;;;7.33;3.04;;;;;;;;;;363337;148;858167;-62
2022/05/12 00:48:45;;;;;;;6.65;2.79;;;;;;;;;;363479;145;857460;-59
2022/05/12 00:49:47;;;;;;;6.01;2.85;;;;;;;;;;363356;148;858930;-61
2022/05/12 00:50:49;;;;;;;7.54;3.08;;;;;;;;;;363548;145;859021;-59
2022/05/12 00:51:52;;;;;;;8.76;2.97;;;;;;;;;;363550;145;865676;-60
2022/05/12 00:52:54;;;;;;;10.46;3.23;;;;;;;;;;363453;145;857073;-59
2022/05/12 00:53:55;;;;;;;8.80;2.95;;;;;;;;;;363824;145;858051;-59
2022/05/12 00:54:58;;;;;;;5.08;2.76;;;;;;;;;;363269;147;857136;-62
2022/05/12 00:55:59;;;;;;;7.13;3.06;;;;;;;;;;365578;145;857308;-59
2022/05/12 00:57:01;;;;;;;8.37;3.14;;;;;;;;;;367634;145;857171;-60
2022/05/12 00:58:04;;;;;;;7.23;3.12;;;;;;;;;;364739;145;864702;-60
2022/05/12 00:59:07;;;;;;;7.30;3.45;;;;;;;;;;363251;148;857621;-60
2022/05/12 01:00:10;;;;;;;8.93;3.52;;;;;;;;;;364419;144;857297;-61
2022/05/12 01:01:12;;;;;;;5.62;2.90;;;;;;;;;;365273;147;857762;-59
2022/05/12 01:02:14;;;;;;;6.26;2.84;;;;;;;;;;368107;145;865744;-60
2022/05/12 01:03:18;;;;;;;4.57;2.87;;;;;;;;;;370063;145;865235;-59
2022/05/12 01:04:20;;;;;;;5.59;2.89;;;;;;;;;;369926;144;860798;-60
2022/05/12 01:05:21;;;;;;;10.06;2.96;;;;;;;;;;370160;145;857073;-60
2022/05/12 01:06:23;;;;;;;5.17;2.53;;;;;;;;;;364811;145;866445;-59
2022/05/12 01:07:25;;;;;;;5.84;2.86;;;;;;;;;;363421;148;857148;-60
2022/05/12 01:08:26;;;;;;;9.29;2.96;;;;;;;;;;363502;145;857395;-59
2022/05/12 01:09:28;;;;;;;8.91;3.36;;;;;;;;;;363422;148;857226;-59
2022/05/12 01:10:29;;;;;;;6.89;2.93;;;;;;;;;;363528;145;857254;-60
2022/05/12 01:11:31;;;;;;;7.00;3.00;;;;;;;;;;363325;148;866326;-60
2022/05/12 01:12:33;;;;;;;8.49;2.89;;;;;;;;;;369610;145;859003;-60
2022/05/12 01:13:34;;;;;;;8.16;2.55;;;;;;;;;;366839;146;864871;-61
2022/05/12 01:14:36;;;;;;;6.46;3.08;;;;;;;;;;361187;146;857286;-59
2022/05/12 01:15:38;;;;;;;8.87;2.94;;;;;;;;;;354414;148;857424;-59
2022/05/12 01:16:42;;;;;;;5.93;2.38;;;;;;;;;;363174;145;857246;-60
2022/05/12 01:17:44;;;;;;;11.31;3.01;;;;;;;;;;356883;148;857784;-60
2022/05/12 01:18:47;;;;;;;8.81;2.85;;;;;;;;;;364746;145;858683;-61
2022/05/12 01:19:51;;;;;;;4.70;2.51;;;;;;;;;;355536;148;858778;-62
2022/05/12 01:20:53;;;;;;;9.26;3.01;;;;;;;;;;361254;149;857092;-60
2022/05/12 01:21:55;;;;;;;5.45;2.35;;;;;;;;;;361240;148;858397;-61
2022/05/12 01:22:57;;;;;;;8.16;2.36;;;;;;;;;;363138;148;858117;-59
2022/05/12 01:24:00;;;;;;;5.81;2.33;;;;;;;;;;364867;145;859739;-60
2022/05/12 01:25:01;;;;;;;9.86;3.39;;;;;;;;;;364827;147;857376;-60
2022/05/12 01:26:10;;;;;;;5.05;2.56;;;;;;;;;;357882;148;857190;-59
2022/05/12 01:27:20;;;;;;;8.12;2.54;;;;;;;;;;364293;145;865687;-61
2022/05/12 01:28:22;;;;;;;6.43;2.49;;;;;;;;;;376661;142;857813;-58
2022/05/12 01:29:23;;;;;;;4.91;2.49;;;;;;;;;;378206;142;858006;-60
2022/05/12 01:30:25;;;;;;;5.24;2.29;;;;;;;;;;378064;142;857282;-61
2022/05/12 01:31:27;;;;;;;6.86;2.80;;;;;;;;;;378157;142;864762;-60
2022/05/12 01:32:28;;;;;;;5.27;2.54;;;;;;;;;;378039;142;859051;-59
2022/05/12 01:33:30;;;;;;;8.17;2.29;;;;;;;;;;378140;142;865883;-59
2022/05/12 01:34:31;;;;;;;3.95;2.09;;;;;;;;;;377651;140;858407;-59
2022/05/12 01:35:33;;;;;;;4.50;2.58;;;;;;;;;;378086;142;857465;-60
2022/05/12 01:36:35;;;;;;;4.98;2.34;;;;;;;;;;377836;142;859436;-59
2022/05/12 01:37:40;;;;;;;5.99;2.78;;;;;;;;;;377114;142;865789;-59
2022/05/12 01:38:42;;;;;;;6.98;2.47;;;;;;;;;;370602;145;866115;-59
2022/05/12 01:39:43;;;;;;;5.12;2.69;;;;;;;;;;372969;142;859034;-59
2022/05/12 01:40:45;;;;;;;5.49;2.64;;;;;;;;;;378160;142;857411;-59
2022/05/12 01:41:48;;;;;;;6.25;2.56;;;;;;;;;;377458;141;865224;-59
2022/05/12 01:42:50;;;;;;;6.51;2.76;;;;;;;;;;376369;143;864717;-60
2022/05/12 01:43:51;;;;;;;7.26;2.84;;;;;;;;;;375196;142;857797;-61
2022/05/12 01:44:53;;;;;;;6.82;2.89;;;;;;;;;;368826;145;864672;-60
2022/05/12 01:45:54;;;;;;;5.36;2.18;;;;;;;;;;369597;142;857122;-57
2022/05/12 01:46:56;;;;;;;7.44;2.63;;;;;;;;;;371038;145;857240;-60
2022/05/12 01:47:58;;;;;;;6.85;2.24;;;;;;;;;;371058;142;864740;-60
2022/05/12 01:48:59;;;;;;;4.71;2.13;;;;;;;;;;370855;145;864811;-59
2022/05/12 01:50:01;;;;;;;5.72;2.53;;;;;;;;;;371103;142;857147;-59
2022/05/12 01:51:02;;;;;;;5.28;2.25;;;;;;;;;;375538;142;857062;-59
2022/05/12 01:52:06;;;;;;;8.00;2.21;;;;;;;;;;370332;145;864773;-62
2022/05/12 01:53:09;;;;;;;5.24;2.44;;;;;;;;;;370602;140;857413;-60
2022/05/12 01:54:10;;;;;;;8.79;2.57;;;;;;;;;;373675;142;866210;-60
2022/05/12 01:55:13;;;;;;;7.20;2.56;;;;;;;;;;371112;142;857963;-59
2022/05/12 01:56:16;;;;;;;7.19;2.13;;;;;;;;;;370871;142;861220;-59
2022/05/12 01:57:18;;;;;;;8.55;2.66;;;;;;;;;;371076;142;857251;-60
2022/05/12 01:58:20;;;;;;;5.79;2.36;;;;;;;;;;374470;142;859477;-59
2022/05/12 01:59:23;;;;;;;6.45;2.33;;;;;;;;;;373479;142;858627;-61
2022/05/12 02:00:25;;;;;;;5.55;2.56;;;;;;;;;;372171;142;858435;-60
2022/05/12 02:01:26;;;;;;;5.45;2.70;;;;;;;;;;370942;145;858140;-59
2022/05/12 02:02:28;;;;;;;3.53;1.93;;;;;;;;;;376350;142;860354;-60
2022/05/12 02:03:29;;;;;;;5.49;2.32;;;;;;;;;;370927;145;857260;-58
2022/05/12 02:04:31;;;;;;;5.75;2.72;;;;;;;;;;375068;140;857067;-59
2022/05/12 02:05:33;;;;;;;5.76;3.07;;;;;;;;;;370988;145;857739;-59
2022/05/12 02:06:35;;;;;;;8.29;2.59;;;;;;;;;;372363;142;860408;-60
2022/05/12 02:07:38;;;;;;;9.04;2.56;;;;;;;;;;377968;142;857853;-60
2022/05/12 02:08:39;;;;;;;4.19;2.40;;;;;;;;;;372702;142;857319;-60
2022/05/12 02:09:41;;;;;;;8.39;2.64;;;;;;;;;;377693;142;857335;-59
2022/05/12 02:10:45;;;;;;;7.34;3.06;;;;;;;;;;377990;142;857399;-59
2022/05/12 02:11:47;;;;;;;5.02;2.17;;;;;;;;;;377754;142;857231;-59
2022/05/12 02:12:48;;;;;;;7.42;2.77;;;;;;;;;;377432;142;858933;-59
2022/05/12 02:13:50;;;;;;;7.42;2.36;;;;;;;;;;375402;142;864640;-59
2022/05/12 02:14:51;;;;;;;5.24;2.59;;;;;;;;;;370901;142;857336;-60
2022/05/12 02:15:54;;;;;;;6.24;2.59;;;;;;;;;;370962;142;857090;-60
2022/05/12 02:16:56;;;;;;;7.50;2.36;;;;;;;;;;370713;145;866227;-59
2022/05/12 02:17:58;;;;;;;5.99;2.52;;;;;;;;;;373216;142;858911;-58
2022/05/12 02:19:00;;;;;;;5.75;2.41;;;;;;;;;;378220;142;857271;-59
2022/05/12 02:20:02;;;;;;;5.77;2.49;;;;;;;;;;375408;142;857105;-59
2022/05/12 02:21:04;;;;;;;4.85;2.23;;;;;;;;;;371071;145;857119;-58
2022/05/12 02:22:06;;;;;;;6.02;2.93;;;;;;;;;;374272;142;859043;-59
2022/05/12 02:23:08;;;;;;;5.62;2.18;;;;;;;;;;378191;142;857249;-59
2022/05/12 02:24:09;;;;;;;8.52;2.39;;;;;;;;;;377968;142;864885;-59
2022/05/12 02:25:11;;;;;;;5.54;2.68;;;;;;;;;;378189;142;857195;-59
2022/05/12 02:26:13;;;;;;;4.59;2.25;;;;;;;;;;374034;142;857260;-59
2022/05/12 02:27:15;;;;;;;6.14;2.35;;;;;;;;;;371089;145;857245;-59
2022/05/12 02:28:16;;;;;;;7.98;2.46;;;;;;;;;;375866;140;858969;-60
2022/05/12 02:29:18;;;;;;;6.71;2.66;;;;;;;;;;383718;140;858948;-59
2022/05/12 02:30:22;;;;;;;6.61;2.59;;;;;;;;;;374774;140;865463;-59
2022/05/12 02:31:23;;;;;;;5.30;2.38;;;;;;;;;;371051;143;865377;-59
2022/05/12 02:32:27;;;;;;;5.86;2.47;;;;;;;;;;371224;145;857611;-59
2022/05/12 02:33:28;;;;;;;5.39;2.61;;;;;;;;;;373719;142;864862;-60
2022/05/12 02:34:29;;;;;;;6.63;2.29;;;;;;;;;;371995;142;857140;-60
2022/05/12 02:35:31;;;;;;;9.91;2.36;;;;;;;;;;370915;145;857110;-60
2022/05/12 02:36:33;;;;;;;4.39;2.23;;;;;;;;;;377549;140;857371;-60
2022/05/12 02:37:34;;;;;;;6.11;2.63;;;;;;;;;;377068;142;866611;-60
2022/05/12 02:38:36;;;;;;;7.23;2.06;;;;;;;;;;377987;142;857223;-60
2022/05/12 02:39:38;;;;;;;7.96;2.58;;;;;;;;;;377615;142;865068;-60
2022/05/12 02:40:40;;;;;;;4.57;2.43;;;;;;;;;;378026;142;864854;-60
2022/05/12 02:41:42;;;;;;;7.48;2.48;;;;;;;;;;377490;140;855806;-59
2022/05/12 02:42:43;;;;;;;4.80;2.06;;;;;;;;;;376592;142;858474;-60
2022/05/12 02:43:45;;;;;;;6.17;2.58;;;;;;;;;;377180;140;864870;-60
2022/05/12 02:44:46;;;;;;;6.47;2.33;;;;;;;;;;377927;140;857169;-61
2022/05/12 02:45:48;;;;;;;3.01;2.08;;;;;;;;;;371720;142;857215;-58
2022/05/12 02:46:49;;;;;;;5.03;2.39;;;;;;;;;;373689;143;858671;-58
2022/05/12 02:47:51;;;;;;;5.40;2.76;;;;;;;;;;377011;142;858210;-59
2022/05/12 02:48:52;;;;;;;4.59;2.11;;;;;;;;;;378577;142;857706;-60
2022/05/12 02:49:54;;;;;;;4.40;2.39;;;;;;;;;;376594;142;866470;-60
2022/05/12 02:50:56;;;;;;;9.60;2.51;;;;;;;;;;371553;142;858995;-59
2022/05/12 02:51:57;;;;;;;4.18;2.63;;;;;;;;;;371488;142;865446;-60
2022/05/12 02:52:59;;;;;;;6.13;2.29;;;;;;;;;;374431;142;858815;-59
2022/05/12 02:54:00;;;;;;;5.68;2.26;;;;;;;;;;374198;142;857441;-59
2022/05/12 02:55:02;;;;;;;5.09;2.36;;;;;;;;;;368748;145;866549;-59
2022/05/12 02:56:04;;;;;;;6.74;2.37;;;;;;;;;;368343;145;865262;-65
2022/05/12 02:57:06;;;;;;;6.16;2.40;;;;;;;;;;364588;145;866491;-60
2022/05/12 02:58:07;;;;;;;5.95;2.26;;;;;;;;;;367653;145;864838;-60
2022/05/12 02:59:09;;;;;;;4.98;2.33;;;;;;;;;;370299;145;857191;-59
2022/05/12 03:00:12;;;;;;;5.63;2.03;;;;;;;;;;366855;145;857571;-59
2022/05/12 03:01:14;;;;;;;5.41;2.24;;;;;;;;;;364555;145;859036;-59
2022/05/12 03:02:16;;;;;;;4.24;2.22;;;;;;;;;;364630;145;859020;-59
2022/05/12 03:03:18;;;;;;;5.18;2.22;;;;;;;;;;364598;145;864763;-59
2022/05/12 03:04:20;;;;;;;8.07;2.49;;;;;;;;;;366587;145;857289;-59
2022/05/12 03:05:21;;;;;;;4.76;2.33;;;;;;;;;;364591;145;856331;-59
2022/05/12 03:06:23;;;;;;;7.39;2.31;;;;;;;;;;369576;145;857245;-59
2022/05/12 03:07:25;;;;;;;3.39;2.07;;;;;;;;;;371294;145;864731;-59
2022/05/12 03:08:26;;;;;;;7.63;2.26;;;;;;;;;;371012;145;864698;-59
2022/05/12 03:09:28;;;;;;;8.41;2.37;;;;;;;;;;371306;145;857220;-59
2022/05/12 03:10:30;;;;;;;5.27;1.96;;;;;;;;;;370383;145;857673;-59
2022/05/12 03:11:32;;;;;;;6.35;2.43;;;;;;;;;;367709;143;858306;-59
2022/05/12 03:12:34;;;;;;;4.86;2.01;;;;;;;;;;364728;145;865352;-61
2022/05/12 03:13:35;;;;;;;6.00;2.19;;;;;;;;;;364449;147;857709;-62
2022/05/12 03:14:37;;;;;;;4.45;2.09;;;;;;;;;;368130;145;865169;-59
2022/05/12 03:15:39;;;;;;;3.66;1.85;;;;;;;;;;364501;145;864820;-59
2022/05/12 03:16:40;;;;;;;5.15;2.51;;;;;;;;;;364588;145;857236;-59
2022/05/12 03:17:43;;;;;;;5.09;2.52;;;;;;;;;;364605;145;864799;-58
2022/05/12 03:18:51;;;;;;;4.87;2.44;;;;;;;;;;364647;145;857134;-59
2022/05/12 03:19:51;;;;;;;3.97;2.41;;;;;;;;;;364346;145;859572;-59
2022/05/12 03:20:53;;;;;;;5.84;2.13;;;;;;;;;;361590;147;859531;-59
2022/05/12 03:21:55;;;;;;;5.42;2.01;;;;;;;;;;365261;145;858582;-59
2022/05/12 03:22:57;;;;;;;7.21;2.70;;;;;;;;;;371507;145;857203;-60
2022/05/12 03:23:58;;;;;;;4.03;2.27;;;;;;;;;;371410;145;865082;-60
2022/05/12 03:25:00;;;;;;;3.50;1.90;;;;;;;;;;371530;145;857254;-60
2022/05/12 03:26:02;;;;;;;6.92;2.32;;;;;;;;;;369949;145;866496;-60
2022/05/12 03:27:03;;;;;;;5.73;2.17;;;;;;;;;;369705;145;866527;-60
2022/05/12 03:28:05;;;;;;;7.43;2.52;;;;;;;;;;369716;145;857223;-60
2022/05/12 03:29:07;;;;;;;8.79;2.29;;;;;;;;;;369630;145;857182;-61
2022/05/12 03:30:11;;;;;;;4.40;1.78;;;;;;;;;;366773;145;858961;-59
2022/05/12 03:31:12;;;;;;;5.65;1.79;;;;;;;;;;364537;147;857662;-59
2022/05/12 03:32:14;;;;;;;5.11;2.29;;;;;;;;;;364616;147;858098;-59
2022/05/12 03:33:15;;;;;;;3.33;1.95;;;;;;;;;;364585;147;864679;-59
2022/05/12 03:34:17;;;;;;;8.49;2.09;;;;;;;;;;364568;145;858236;-59
2022/05/12 03:35:19;;;;;;;4.00;1.75;;;;;;;;;;364513;147;857300;-60
2022/05/12 03:36:22;;;;;;;4.81;1.79;;;;;;;;;;364570;147;857225;-59
2022/05/12 03:37:23;;;;;;;5.71;2.27;;;;;;;;;;365910;146;856510;-59
2022/05/12 03:38:25;;;;;;;6.68;2.36;;;;;;;;;;368827;146;859382;-62
2022/05/12 03:39:27;;;;;;;7.64;2.05;;;;;;;;;;368782;146;864691;-60
2022/05/12 03:40:28;;;;;;;4.51;1.79;;;;;;;;;;368799;146;857654;-59
2022/05/12 03:41:31;;;;;;;2.49;1.79;;;;;;;;;;368774;146;857103;-59
2022/05/12 03:42:32;;;;;;;3.95;1.98;;;;;;;;;;366730;145;857338;-60
2022/05/12 03:44:54;;;;;;;6.17;1.97;;;;;;;;;;366687;147;857243;-58
2022/05/12 03:45:55;;;;;;;5.87;2.03;;;;;;;;;;367019;146;864748;-59
2022/05/12 03:46:57;;;;;;;3.28;1.76;;;;;;;;;;367058;147;857256;-62
2022/05/12 03:47:59;;;;;;;5.61;2.04;;;;;;;;;;364740;146;865843;-61
2022/05/12 03:49:01;;;;;;;5.49;2.29;;;;;;;;;;364101;145;860061;-62
2022/05/12 03:50:04;;;;;;;5.44;1.64;;;;;;;;;;364109;148;860056;-60
2022/05/12 03:51:06;;;;;;;4.47;1.91;;;;;;;;;;360328;147;864925;-62
2022/05/12 03:52:08;;;;;;;4.73;1.81;;;;;;;;;;359521;147;858835;-61
2022/05/12 03:53:10;;;;;;;4.50;1.87;;;;;;;;;;359512;147;858789;-61
2022/05/12 03:54:11;;;;;;;3.53;1.37;;;;;;;;;;359830;147;865162;-60
2022/05/12 03:55:13;;;;;;;3.80;1.96;;;;;;;;;;364921;147;857792;-59
2022/05/12 03:56:16;;;;;;;4.09;1.77;;;;;;;;;;365792;147;857322;-59
2022/05/12 03:57:18;;;;;;;4.03;2.19;;;;;;;;;;359920;147;858227;-59
2022/05/12 03:58:20;;;;;;;5.37;1.85;;;;;;;;;;359499;147;865337;-59
2022/05/12 03:59:21;;;;;;;3.24;1.98;;;;;;;;;;365379;147;857896;-59
2022/05/12 04:00:25;;;;;;;3.62;1.93;;;;;;;;;;360819;147;856453;-60
2022/05/12 04:01:27;;;;;;;5.29;1.89;;;;;;;;;;359312;150;864832;-61
2022/05/12 04:02:29;;;;;;;7.24;2.69;;;;;;;;;;359563;147;858978;-61
2022/05/12 04:03:30;;;;;;;3.31;1.78;;;;;;;;;;359381;144;858976;-60
2022/05/12 04:04:32;;;;;;;2.98;1.51;;;;;;;;;;357469;150;866546;-60
2022/05/12 04:05:34;;;;;;;4.01;2.23;;;;;;;;;;352284;153;857391;-60
2022/05/12 04:06:36;;;;;;;8.53;2.15;;;;;;;;;;352457;150;857744;-60
2022/05/12 04:07:41;;;;;;;3.88;1.99;;;;;;;;;;350428;152;857999;-59
2022/05/12 04:08:43;;;;;;;5.22;1.82;;;;;;;;;;350105;150;857514;-59
2022/05/12 04:09:44;;;;;;;6.98;1.75;;;;;;;;;;358386;150;857404;-59
2022/05/12 04:10:46;;;;;;;3.37;2.12;;;;;;;;;;358347;150;857269;-58
2022/05/12 04:11:48;;;;;;;5.41;1.77;;;;;;;;;;358396;150;864671;-59
2022/05/12 04:12:49;;;;;;;3.26;1.60;;;;;;;;;;355850;150;864811;-60
2022/05/12 04:13:51;;;;;;;3.61;1.94;;;;;;;;;;352134;150;857136;-60
2022/05/12 04:14:52;;;;;;;5.96;1.69;;;;;;;;;;355033;150;857181;-60
2022/05/12 04:15:54;;;;;;;4.91;1.63;;;;;;;;;;358288;150;866508;-59
2022/05/12 04:16:56;;;;;;;7.91;2.24;;;;;;;;;;358243;150;866003;-59
2022/05/12 04:17:58;;;;;;;9.25;2.51;;;;;;;;;;358344;150;865365;-58
2022/05/12 04:19:00;;;;;;;4.91;1.81;;;;;;;;;;354486;150;860391;-59
2022/05/12 04:20:04;;;;;;;3.69;1.71;;;;;;;;;;354371;150;860812;-60
2022/05/12 04:21:07;;;;;;;8.69;2.05;;;;;;;;;;353386;150;864813;-60
2022/05/12 04:22:08;;;;;;;4.97;1.99;;;;;;;;;;355175;150;865310;-61
2022/05/12 04:23:10;;;;;;;4.36;1.56;;;;;;;;;;358559;150;857770;-61
2022/05/12 04:24:11;;;;;;;6.08;1.82;;;;;;;;;;358466;150;864804;-60
2022/05/12 04:25:13;;;;;;;6.43;1.97;;;;;;;;;;353438;150;858548;-59
2022/05/12 04:26:15;;;;;;;3.68;1.69;;;;;;;;;;353767;150;857745;-60
2022/05/12 04:27:16;;;;;;;10.76;2.26;;;;;;;;;;352336;150;857557;-59
2022/05/12 04:28:19;;;;;;;5.93;1.49;;;;;;;;;;356458;150;864750;-60
2022/05/12 04:29:21;;;;;;;9.89;2.14;;;;;;;;;;358383;150;864677;-59
2022/05/12 04:30:26;;;;;;;4.45;1.50;;;;;;;;;;353844;150;858515;-60
2022/05/12 04:31:28;;;;;;;6.89;1.85;;;;;;;;;;352009;153;865044;-60
2022/05/12 04:32:30;;;;;;;7.47;2.04;;;;;;;;;;352345;150;865249;-61
2022/05/12 04:36:13;;;;;;;6.47;1.87;;;;;;;;;;353492;150;858271;-61
2022/05/12 04:37:15;;;;;;;4.95;1.93;;;;;;;;;;352811;150;857288;-60
2022/05/12 04:38:17;;;;;;;5.94;1.89;;;;;;;;;;353383;150;857757;-61
2022/05/12 04:39:18;;;;;;;3.14;1.70;;;;;;;;;;350796;151;857301;-61
2022/05/12 04:40:21;;;;;;;5.91;2.67;;;;;;;;;;352097;151;864673;-61
2022/05/12 04:41:24;;;;;;;6.73;1.69;;;;;;;;;;351903;153;864900;-61
2022/05/12 04:42:25;;;;;;;5.08;2.23;;;;;;;;;;352290;150;859400;-61
2022/05/12 04:43:27;;;;;;;3.94;1.56;;;;;;;;;;352095;153;864965;-62
2022/05/12 04:44:29;;;;;;;4.73;1.86;;;;;;;;;;353913;150;858695;-60
2022/05/12 04:45:31;;;;;;;4.50;1.88;;;;;;;;;;357616;149;865803;-59
2022/05/12 04:46:34;;;;;;;2.43;1.28;;;;;;;;;;352536;150;864813;-59
2022/05/12 04:47:36;;;;;;;5.85;1.85;;;;;;;;;;352103;153;857904;-59
2022/05/12 04:48:38;;;;;;;4.81;1.75;;;;;;;;;;352201;150;864978;-60
2022/05/12 04:49:40;;;;;;;8.48;2.09;;;;;;;;;;352303;150;857617;-59
2022/05/12 04:50:41;;;;;;;6.49;1.79;;;;;;;;;;354625;150;857348;-61
2022/05/12 04:51:43;;;;;;;3.26;1.69;;;;;;;;;;352134;150;864949;-60
2022/05/12 04:52:45;;;;;;;8.00;1.94;;;;;;;;;;352326;150;865429;-61
2022/05/12 04:53:46;;;;;;;5.34;2.01;;;;;;;;;;353505;146;859019;-59
2022/05/12 04:54:48;;;;;;;4.23;1.66;;;;;;;;;;352196;150;865752;-59
2022/05/12 04:55:49;;;;;;;4.89;1.73;;;;;;;;;;352186;150;864931;-59
2022/05/12 04:56:51;;;;;;;5.19;1.77;;;;;;;;;;352349;150;857777;-62
2022/05/12 04:57:55;;;;;;;3.26;1.74;;;;;;;;;;352303;150;857202;-61
2022/05/12 04:58:56;;;;;;;5.67;1.85;;;;;;;;;;355336;150;858859;-61
2022/05/12 04:59:58;;;;;;;3.88;1.65;;;;;;;;;;354722;150;858916;-61
2022/05/12 05:00:59;;;;;;;8.22;1.94;;;;;;;;;;352300;150;864798;-61
2022/05/12 05:02:01;;;;;;;5.64;1.76;;;;;;;;;;352351;150;865701;-61
2022/05/12 05:03:03;;;;;;;5.61;1.51;;;;;;;;;;356301;150;865541;-60
2022/05/12 05:04:05;;;;;;;8.18;1.61;;;;;;;;;;358270;148;857294;-59
2022/05/12 05:05:07;;;;;;;7.06;1.77;;;;;;;;;;354599;151;865168;-61
2022/05/12 05:06:09;;;;;;;8.90;2.44;;;;;;;;;;355057;148;864892;-60
2022/05/12 05:07:12;;;;;;;4.91;1.85;;;;;;;;;;358100;148;857797;-59
2022/05/12 05:08:15;;;;;;;3.39;1.73;;;;;;;;;;356835;148;857206;-59
2022/05/12 05:09:16;;;;;;;5.47;2.07;;;;;;;;;;356867;148;860029;-62
2022/05/12 05:10:18;;;;;;;4.87;2.22;;;;;;;;;;356848;148;859203;-61
2022/05/12 05:11:20;;;;;;;6.74;1.74;;;;;;;;;;356825;148;859060;-60
2022/05/12 05:12:22;;;;;;;6.57;2.03;;;;;;;;;;356861;148;857077;-59
2022/05/12 05:13:23;;;;;;;3.06;1.68;;;;;;;;;;356788;151;857175;-62
2022/05/12 05:14:25;;;;;;;3.84;1.79;;;;;;;;;;361752;148;857359;-60
2022/05/12 05:15:27;;;;;;;3.48;1.64;;;;;;;23.04;100.00;112913.89;363131;148;857273;-60
2022/05/12 05:16:29;;;;;;;3.02;1.53;;;;;;;;;;363064;148;858980;-60
2022/05/12 05:17:31;;;;;;;6.63;1.67;;;;;;;;;;363211;148;857197;-60
2022/05/12 05:18:33;;;;;;;5.61;1.49;;;;;;;;;;358066;148;858471;-60
2022/05/12 05:19:35;;;;;;;4.27;1.36;;;;;;;;;;363088;148;859929;-60
2022/05/12 05:20:37;;;;;;;4.27;1.88;;;;;;;;;;361022;148;858108;-59
2022/05/12 05:21:38;;;;;;;5.47;1.83;;;;;;;;;;356760;148;859053;-60
2022/05/12 05:22:40;;;;;;;6.91;1.67;;;;;;;;;;361328;148;866545;-60
2022/05/12 05:23:42;;;;;;;4.41;1.78;;;;;;;;;;357203;148;860127;-59
2022/05/12 05:36:45;;;;;;;5.07;2.07;;;;;;;18.93;32.69;99610.53;377231;142;879797;-60
2022/05/12 05:37:47;;;;;;;5.56;1.91;;;;;;;18.80;32.45;99605.01;367319;144;857183;-61
2022/05/12 05:38:49;;;;;;;6.49;1.89;;;;;;;18.78;33.01;99606.02;372818;144;866539;-61
2022/05/12 05:39:51;;;;;;;5.33;1.85;;;;;;;;;;369746;144;857222;-60
2022/05/12 05:40:53;;;;;;;7.04;2.01;;;;;;;;;;366224;144;857389;-62
2022/05/12 05:41:56;;;;;;;6.03;1.56;;;;;;;;;;366093;147;865588;-62
2022/05/12 05:42:58;;;;;;;4.08;1.71;;;;;;;;;;366113;144;865264;-60
2022/05/12 05:44:00;;;;;;;3.38;1.60;;;;;;;;;;366187;147;859015;-60
2022/05/12 05:45:10;;;;;;;2.62;1.53;;;;;;;;;;366154;144;864686;-59
2022/05/12 05:46:05;;;;;;;8.56;2.09;;;;;;;;;;365890;147;858492;-60
2022/05/12 05:47:07;;;;;;;2.66;1.49;;;;;;;;;;371073;144;857927;-60
2022/05/12 05:48:09;;;;;;;5.04;2.03;;;;;;;;;;369324;144;864812;-59
2022/05/12 05:49:11;;;;;;;4.32;2.01;;;;;;;;;;366170;144;857282;-61
2022/05/12 05:50:14;;;;;;;2.59;1.68;;;;;;;;;;366413;144;866644;-59
2022/05/12 05:53:55;;;;;;;;;;;;;;;;;;368895;147;856709;-61
2022/05/12 05:54:57;;;;;;;3.63;1.51;;;;;;;;;;367296;146;857326;-60
2022/05/12 05:55:59;;;;;;;7.70;2.08;;;;;;;;;;366006;144;857222;-59
2022/05/12 05:57:01;;;;;;;4.99;2.09;;;;;;;;;;366040;147;857205;-60
2022/05/12 05:58:03;;;;;;;5.19;2.01;;;;;;;;;;366145;147;857274;-60
2022/05/12 05:59:05;;;;;;;4.36;1.96;;;;;;;;;;366138;147;857309;-61
2022/05/12 06:00:07;;;;;;;11.63;2.11;;;;;;;;;;368510;144;858177;-61
2022/05/12 06:01:09;;;;;;;8.25;2.11;;;;;;;;;;367712;144;859641;-61
2022/05/12 06:02:11;;;;;;;6.16;2.20;;;;;;;;;;366063;146;857239;-61
2022/05/12 06:03:12;;;;;;;6.70;2.23;;;;;;;;;;371725;144;859025;-59
2022/05/12 06:04:14;;;;;;;4.49;1.63;;;;;;;;;;368797;144;864714;-59
2022/05/12 06:05:17;;;;;;;5.47;1.58;;;;;;;;;;366098;147;857222;-61
2022/05/12 06:06:20;;;;;;;2.52;1.68;;;;;;;;;;370735;144;865291;-59
2022/05/12 06:07:21;;;;;;;8.91;2.20;;;;;;;;;;366148;144;858944;-60
2022/05/12 06:08:23;;;;;;;10.66;2.07;;;;;;;;;;366054;147;865516;-59
2022/05/12 06:09:25;;;;;;;5.15;1.79;;;;;;;;;;366088;147;864720;-60
2022/05/12 06:10:27;;;;;;;5.39;2.00;;;;;;;;;;366103;147;857763;-62
2022/05/12 06:11:28;;;;;;;7.54;2.19;;;;;;;;;;366161;147;859776;-61
2022/05/12 06:12:30;;;;;;;4.71;1.50;;;;;;;;;;366096;147;866591;-59
2022/05/12 06:13:33;;;;;;;6.76;2.41;;;;;;;;;;366128;147;866304;-60
2022/05/12 06:14:35;;;;;;;4.81;1.94;;;;;;;;;;367275;144;857345;-59
2022/05/12 06:15:36;;;;;;;3.34;1.81;;;;;;;;;;372815;144;864970;-60
2022/05/12 06:16:38;;;;;;;8.99;2.05;;;;;;;;;;365558;144;859204;-61
2022/05/12 06:17:41;;;;;;;6.71;2.14;;;;;;;;;;366075;147;857462;-62
2022/05/12 06:18:42;;;;;;;9.27;2.17;;;;;;;;;;366798;146;857345;-61
2022/05/12 06:19:44;;;;;;;4.79;1.93;;;;;;;;;;368708;144;857320;-61
2022/05/12 06:20:47;;;;;;;5.90;1.70;;;;;;;;;;370399;144;857227;-60
2022/05/12 06:21:49;;;;;;;6.62;1.80;;;;;;;;;;367360;144;857145;-60
2022/05/12 06:22:51;;;;;;;3.62;2.08;;;;;;;;;;369954;144;857232;-60